sensor_id;sensor_type;location;lat;lon;timestamp;P1;durP1;ratioP1;P2;durP2;ratioP2
41657;SDS011;27347;57.132;-2.084;2022-10-31T00:00:13;8.18;;;2.08;;
41657;SDS011;27347;57.132;-2.084;2022-10-31T00:02:38;2.70;;;1.48;;
41657;SDS011;27347;57.132;-2.084;2022-10-31T00:05:04;5.55;;;2.00;;
41657;SDS011;27347;57.132;-2.084;2022-10-31T00:07:29;3.40;;;1.55;;
41657;SDS011;27347;57.132;-2.084;2022-10-31T00:09:55;2.92;;;1.52;;
41657;SDS011;27347;57.132;-2.084;2022-10-31T00:12:20;5.80;;;1.65;;
41657;SDS011;27347;57.132;-2.084;2022-10-31T00:14:45;5.50;;;1.50;;
41657;SDS011;27347;57.132;-2.084;2022-10-31T00:17:11;4.38;;;1.50;;
41657;SDS011;27347;57.132;-2.084;2022-10-31T00:19:36;5.22;;;1.95;;
41657;SDS011;27347;57.132;-2.084;2022-10-31T00:22:02;6.43;;;2.13;;
41657;SDS011;27347;57.132;-2.084;2022-10-31T00:24:27;4.07;;;1.63;;
41657;SDS011;27347;57.132;-2.084;2022-10-31T00:26:52;4.22;;;1.58;;
41657;SDS011;27347;57.132;-2.084;2022-10-31T00:29:18;4.00;;;1.40;;
41657;SDS011;27347;57.132;-2.084;2022-10-31T00:31:43;3.70;;;1.67;;
41657;SDS011;27347;57.132;-2.084;2022-10-31T00:34:08;9.15;;;1.75;;
41657;SDS011;27347;57.132;-2.084;2022-10-31T00:36:34;6.05;;;1.95;;
41657;SDS011;27347;57.132;-2.084;2022-10-31T00:38:59;4.40;;;2.00;;
41657;SDS011;27347;57.132;-2.084;2022-10-31T00:41:26;5.93;;;1.58;;
41657;SDS011;27347;57.132;-2.084;2022-10-31T00:43:51;4.88;;;2.10;;
41657;SDS011;27347;57.132;-2.084;2022-10-31T00:46:17;4.18;;;2.00;;
41657;SDS011;27347;57.132;-2.084;2022-10-31T00:48:42;5.57;;;2.20;;
41657;SDS011;27347;57.132;-2.084;2022-10-31T00:51:08;4.50;;;1.63;;
41657;SDS011;27347;57.132;-2.084;2022-10-31T00:53:34;3.90;;;1.70;;
41657;SDS011;27347;57.132;-2.084;2022-10-31T00:55:59;4.75;;;1.80;;
41657;SDS011;27347;57.132;-2.084;2022-10-31T00:58:25;3.35;;;1.90;;
41657;SDS011;27347;57.132;-2.084;2022-10-31T01:00:50;1.75;;;1.23;;
41657;SDS011;27347;57.132;-2.084;2022-10-31T01:03:20;3.00;;;1.20;;
41657;SDS011;27347;57.132;-2.084;2022-10-31T01:05:54;5.03;;;1.88;;
41657;SDS011;27347;57.132;-2.084;2022-10-31T01:08:27;5.93;;;1.63;;
41657;SDS011;27347;57.132;-2.084;2022-10-31T01:13:32;5.32;;;1.63;;
41657;SDS011;27347;57.132;-2.084;2022-10-31T01:15:58;6.45;;;2.45;;
41657;SDS011;27347;57.132;-2.084;2022-10-31T01:18:24;4.75;;;2.15;;
41657;SDS011;27347;57.132;-2.084;2022-10-31T01:21:04;2.88;;;1.42;;
41657;SDS011;27347;57.132;-2.084;2022-10-31T01:23:31;5.55;;;1.45;;
41657;SDS011;27347;57.132;-2.084;2022-10-31T01:26:05;3.55;;;1.45;;
41657;SDS011;27347;57.132;-2.084;2022-10-31T01:28:33;4.85;;;1.42;;
41657;SDS011;27347;57.132;-2.084;2022-10-31T01:31:03;6.75;;;1.45;;
41657;SDS011;27347;57.132;-2.084;2022-10-31T01:33:30;4.70;;;1.50;;
41657;SDS011;27347;57.132;-2.084;2022-10-31T01:35:56;6.18;;;1.45;;
41657;SDS011;27347;57.132;-2.084;2022-10-31T01:38:21;6.68;;;1.40;;
41657;SDS011;27347;57.132;-2.084;2022-10-31T01:40:48;6.55;;;1.70;;
41657;SDS011;27347;57.132;-2.084;2022-10-31T01:43:13;5.05;;;1.40;;
41657;SDS011;27347;57.132;-2.084;2022-10-31T01:45:39;8.38;;;1.88;;
41657;SDS011;27347;57.132;-2.084;2022-10-31T01:48:06;5.30;;;1.50;;
41657;SDS011;27347;57.132;-2.084;2022-10-31T01:50:37;6.38;;;1.33;;
41657;SDS011;27347;57.132;-2.084;2022-10-31T01:53:03;10.20;;;1.38;;
41657;SDS011;27347;57.132;-2.084;2022-10-31T01:55:33;5.53;;;1.35;;
41657;SDS011;27347;57.132;-2.084;2022-10-31T01:58:02;4.18;;;1.88;;
41657;SDS011;27347;57.132;-2.084;2022-10-31T02:00:30;7.78;;;1.48;;
41657;SDS011;27347;57.132;-2.084;2022-10-31T02:02:56;5.13;;;1.50;;
41657;SDS011;27347;57.132;-2.084;2022-10-31T02:05:22;6.50;;;1.50;;
41657;SDS011;27347;57.132;-2.084;2022-10-31T02:08:01;4.25;;;1.20;;
41657;SDS011;27347;57.132;-2.084;2022-10-31T02:10:31;7.90;;;1.60;;
41657;SDS011;27347;57.132;-2.084;2022-10-31T02:12:58;7.78;;;1.40;;
41657;SDS011;27347;57.132;-2.084;2022-10-31T02:15:25;3.67;;;1.60;;
41657;SDS011;27347;57.132;-2.084;2022-10-31T02:17:51;6.00;;;1.77;;
41657;SDS011;27347;57.132;-2.084;2022-10-31T02:20:20;9.30;;;1.65;;
41657;SDS011;27347;57.132;-2.084;2022-10-31T02:33:43;9.25;;;1.45;;
41657;SDS011;27347;57.132;-2.084;2022-10-31T02:36:11;7.78;;;1.67;;
41657;SDS011;27347;57.132;-2.084;2022-10-31T02:41:21;8.95;;;1.48;;
41657;SDS011;27347;57.132;-2.084;2022-10-31T02:46:56;7.15;;;2.03;;
41657;SDS011;27347;57.132;-2.084;2022-10-31T02:49:45;10.80;;;1.77;;
41657;SDS011;27347;57.132;-2.084;2022-10-31T02:54:45;6.25;;;1.70;;
41657;SDS011;27347;57.132;-2.084;2022-10-31T02:57:11;7.75;;;1.77;;
41657;SDS011;27347;57.132;-2.084;2022-10-31T02:59:38;8.55;;;1.65;;
41657;SDS011;27347;57.132;-2.084;2022-10-31T03:02:06;3.08;;;1.25;;
41657;SDS011;27347;57.132;-2.084;2022-10-31T03:07:35;7.05;;;1.40;;
41657;SDS011;27347;57.132;-2.084;2022-10-31T03:10:10;4.95;;;1.77;;
41657;SDS011;27347;57.132;-2.084;2022-10-31T03:12:53;7.13;;;1.42;;
41657;SDS011;27347;57.132;-2.084;2022-10-31T03:15:23;7.18;;;1.55;;
41657;SDS011;27347;57.132;-2.084;2022-10-31T03:20:22;7.85;;;1.63;;
41657;SDS011;27347;57.132;-2.084;2022-10-31T03:22:51;8.20;;;1.83;;
41657;SDS011;27347;57.132;-2.084;2022-10-31T03:25:17;5.93;;;1.58;;
41657;SDS011;27347;57.132;-2.084;2022-10-31T03:27:43;11.52;;;2.17;;
41657;SDS011;27347;57.132;-2.084;2022-10-31T03:30:09;8.90;;;1.98;;
41657;SDS011;27347;57.132;-2.084;2022-10-31T03:32:39;8.23;;;1.52;;
41657;SDS011;27347;57.132;-2.084;2022-10-31T03:35:07;12.35;;;2.17;;
41657;SDS011;27347;57.132;-2.084;2022-10-31T03:37:34;7.57;;;1.48;;
41657;SDS011;27347;57.132;-2.084;2022-10-31T03:40:00;8.93;;;1.50;;
41657;SDS011;27347;57.132;-2.084;2022-10-31T03:42:28;5.05;;;1.60;;
41657;SDS011;27347;57.132;-2.084;2022-10-31T03:45:28;12.18;;;2.00;;
41657;SDS011;27347;57.132;-2.084;2022-10-31T03:47:48;6.30;;;1.35;;
41657;SDS011;27347;57.132;-2.084;2022-10-31T03:50:14;8.27;;;1.80;;
41657;SDS011;27347;57.132;-2.084;2022-10-31T03:55:17;10.20;;;1.88;;
41657;SDS011;27347;57.132;-2.084;2022-10-31T03:58:03;14.57;;;2.00;;
41657;SDS011;27347;57.132;-2.084;2022-10-31T04:00:32;11.50;;;1.80;;
41657;SDS011;27347;57.132;-2.084;2022-10-31T04:03:06;12.10;;;1.70;;
41657;SDS011;27347;57.132;-2.084;2022-10-31T04:05:34;8.75;;;1.80;;
41657;SDS011;27347;57.132;-2.084;2022-10-31T04:08:01;7.63;;;1.58;;
41657;SDS011;27347;57.132;-2.084;2022-10-31T04:10:29;10.00;;;1.95;;
41657;SDS011;27347;57.132;-2.084;2022-10-31T04:13:17;9.38;;;2.00;;
41657;SDS011;27347;57.132;-2.084;2022-10-31T04:15:48;5.03;;;1.40;;
41657;SDS011;27347;57.132;-2.084;2022-10-31T04:18:15;10.85;;;1.67;;
41657;SDS011;27347;57.132;-2.084;2022-10-31T04:20:41;4.95;;;1.33;;
41657;SDS011;27347;57.132;-2.084;2022-10-31T04:23:15;14.95;;;2.30;;
41657;SDS011;27347;57.132;-2.084;2022-10-31T04:25:46;9.20;;;1.48;;
41657;SDS011;27347;57.132;-2.084;2022-10-31T04:28:11;8.05;;;1.70;;
41657;SDS011;27347;57.132;-2.084;2022-10-31T04:30:36;5.78;;;1.30;;
41657;SDS011;27347;57.132;-2.084;2022-10-31T04:33:02;9.52;;;1.70;;
41657;SDS011;27347;57.132;-2.084;2022-10-31T04:35:27;15.27;;;2.22;;
41657;SDS011;27347;57.132;-2.084;2022-10-31T04:37:53;9.10;;;2.17;;
41657;SDS011;27347;57.132;-2.084;2022-10-31T04:40:18;8.07;;;2.28;;
41657;SDS011;27347;57.132;-2.084;2022-10-31T04:42:43;12.13;;;1.88;;
41657;SDS011;27347;57.132;-2.084;2022-10-31T04:45:09;8.48;;;1.50;;
41657;SDS011;27347;57.132;-2.084;2022-10-31T04:47:34;4.72;;;1.48;;
41657;SDS011;27347;57.132;-2.084;2022-10-31T04:50:00;8.18;;;1.63;;
41657;SDS011;27347;57.132;-2.084;2022-10-31T04:52:26;11.13;;;1.77;;
41657;SDS011;27347;57.132;-2.084;2022-10-31T04:54:51;8.45;;;1.45;;
41657;SDS011;27347;57.132;-2.084;2022-10-31T04:57:17;7.38;;;1.60;;
41657;SDS011;27347;57.132;-2.084;2022-10-31T04:59:42;5.82;;;1.58;;
41657;SDS011;27347;57.132;-2.084;2022-10-31T05:02:07;11.70;;;1.98;;
41657;SDS011;27347;57.132;-2.084;2022-10-31T05:04:33;5.55;;;1.48;;
41657;SDS011;27347;57.132;-2.084;2022-10-31T05:06:58;10.18;;;1.48;;
41657;SDS011;27347;57.132;-2.084;2022-10-31T05:09:23;7.28;;;2.17;;
41657;SDS011;27347;57.132;-2.084;2022-10-31T05:11:49;10.38;;;1.90;;
41657;SDS011;27347;57.132;-2.084;2022-10-31T05:14:14;7.03;;;1.65;;
41657;SDS011;27347;57.132;-2.084;2022-10-31T05:16:39;16.27;;;1.95;;
41657;SDS011;27347;57.132;-2.084;2022-10-31T05:19:05;10.98;;;1.83;;
41657;SDS011;27347;57.132;-2.084;2022-10-31T05:21:30;7.75;;;1.55;;
41657;SDS011;27347;57.132;-2.084;2022-10-31T05:23:56;11.77;;;1.77;;
41657;SDS011;27347;57.132;-2.084;2022-10-31T05:26:21;10.57;;;2.20;;
41657;SDS011;27347;57.132;-2.084;2022-10-31T05:28:46;10.43;;;1.75;;
41657;SDS011;27347;57.132;-2.084;2022-10-31T05:31:12;9.57;;;2.03;;
41657;SDS011;27347;57.132;-2.084;2022-10-31T05:33:37;11.18;;;2.05;;
41657;SDS011;27347;57.132;-2.084;2022-10-31T05:36:03;11.77;;;2.00;;
41657;SDS011;27347;57.132;-2.084;2022-10-31T05:38:28;17.67;;;2.53;;
41657;SDS011;27347;57.132;-2.084;2022-10-31T05:40:54;9.43;;;2.53;;
41657;SDS011;27347;57.132;-2.084;2022-10-31T05:43:25;16.52;;;2.30;;
41657;SDS011;27347;57.132;-2.084;2022-10-31T05:45:53;8.63;;;1.80;;
41657;SDS011;27347;57.132;-2.084;2022-10-31T05:48:19;16.70;;;2.50;;
41657;SDS011;27347;57.132;-2.084;2022-10-31T05:50:46;6.38;;;1.75;;
41657;SDS011;27347;57.132;-2.084;2022-10-31T05:53:12;8.95;;;2.13;;
41657;SDS011;27347;57.132;-2.084;2022-10-31T05:55:38;8.43;;;2.28;;
41657;SDS011;27347;57.132;-2.084;2022-10-31T05:58:05;15.93;;;3.78;;
41657;SDS011;27347;57.132;-2.084;2022-10-31T06:00:31;10.18;;;2.30;;
41657;SDS011;27347;57.132;-2.084;2022-10-31T06:02:57;11.02;;;2.60;;
41657;SDS011;27347;57.132;-2.084;2022-10-31T06:05:24;14.55;;;2.50;;
41657;SDS011;27347;57.132;-2.084;2022-10-31T06:07:49;20.58;;;3.10;;
41657;SDS011;27347;57.132;-2.084;2022-10-31T06:10:15;15.93;;;3.10;;
41657;SDS011;27347;57.132;-2.084;2022-10-31T06:12:40;17.80;;;3.03;;
41657;SDS011;27347;57.132;-2.084;2022-10-31T06:15:06;14.30;;;2.88;;
41657;SDS011;27347;57.132;-2.084;2022-10-31T06:17:33;14.57;;;2.60;;
41657;SDS011;27347;57.132;-2.084;2022-10-31T06:19:59;20.50;;;3.70;;
41657;SDS011;27347;57.132;-2.084;2022-10-31T06:22:24;16.85;;;3.10;;
41657;SDS011;27347;57.132;-2.084;2022-10-31T06:24:50;20.20;;;3.90;;
41657;SDS011;27347;57.132;-2.084;2022-10-31T06:27:15;17.02;;;3.50;;
41657;SDS011;27347;57.132;-2.084;2022-10-31T06:29:41;26.25;;;3.90;;
41657;SDS011;27347;57.132;-2.084;2022-10-31T06:32:08;21.67;;;3.78;;
41657;SDS011;27347;57.132;-2.084;2022-10-31T06:34:35;20.95;;;3.15;;
41657;SDS011;27347;57.132;-2.084;2022-10-31T06:37:00;25.50;;;4.00;;
41657;SDS011;27347;57.132;-2.084;2022-10-31T06:39:25;23.00;;;5.93;;
41657;SDS011;27347;57.132;-2.084;2022-10-31T06:41:51;29.85;;;3.95;;
41657;SDS011;27347;57.132;-2.084;2022-10-31T06:44:16;22.20;;;4.05;;
41657;SDS011;27347;57.132;-2.084;2022-10-31T06:46:41;13.90;;;3.13;;
41657;SDS011;27347;57.132;-2.084;2022-10-31T06:49:07;18.95;;;3.45;;
41657;SDS011;27347;57.132;-2.084;2022-10-31T06:51:33;18.05;;;3.47;;
41657;SDS011;27347;57.132;-2.084;2022-10-31T06:53:58;25.45;;;4.93;;
41657;SDS011;27347;57.132;-2.084;2022-10-31T06:56:24;31.15;;;4.53;;
41657;SDS011;27347;57.132;-2.084;2022-10-31T06:58:49;35.47;;;3.97;;
41657;SDS011;27347;57.132;-2.084;2022-10-31T07:01:15;26.25;;;4.35;;
41657;SDS011;27347;57.132;-2.084;2022-10-31T07:03:40;37.25;;;4.93;;
41657;SDS011;27347;57.132;-2.084;2022-10-31T07:06:05;32.72;;;4.93;;
41657;SDS011;27347;57.132;-2.084;2022-10-31T07:08:31;19.23;;;3.92;;
41657;SDS011;27347;57.132;-2.084;2022-10-31T07:10:56;21.58;;;3.65;;
41657;SDS011;27347;57.132;-2.084;2022-10-31T07:13:22;28.02;;;4.35;;
41657;SDS011;27347;57.132;-2.084;2022-10-31T07:15:51;18.73;;;3.40;;
41657;SDS011;27347;57.132;-2.084;2022-10-31T07:18:18;31.52;;;5.03;;
41657;SDS011;27347;57.132;-2.084;2022-10-31T07:20:44;20.45;;;4.20;;
41657;SDS011;27347;57.132;-2.084;2022-10-31T07:23:10;25.35;;;4.43;;
41657;SDS011;27347;57.132;-2.084;2022-10-31T07:25:36;20.70;;;4.45;;
41657;SDS011;27347;57.132;-2.084;2022-10-31T07:28:02;26.02;;;4.57;;
41657;SDS011;27347;57.132;-2.084;2022-10-31T07:30:28;27.92;;;4.50;;
41657;SDS011;27347;57.132;-2.084;2022-10-31T07:32:53;26.63;;;4.93;;
41657;SDS011;27347;57.132;-2.084;2022-10-31T07:35:22;24.13;;;3.63;;
41657;SDS011;27347;57.132;-2.084;2022-10-31T07:37:49;18.50;;;4.22;;
41657;SDS011;27347;57.132;-2.084;2022-10-31T07:40:15;26.80;;;4.65;;
41657;SDS011;27347;57.132;-2.084;2022-10-31T07:42:42;17.80;;;3.65;;
41657;SDS011;27347;57.132;-2.084;2022-10-31T07:45:09;23.55;;;4.35;;
41657;SDS011;27347;57.132;-2.084;2022-10-31T07:47:39;24.63;;;3.85;;
41657;SDS011;27347;57.132;-2.084;2022-10-31T07:50:05;34.42;;;4.95;;
41657;SDS011;27347;57.132;-2.084;2022-10-31T07:52:31;19.60;;;4.35;;
41657;SDS011;27347;57.132;-2.084;2022-10-31T07:54:56;21.92;;;4.35;;
41657;SDS011;27347;57.132;-2.084;2022-10-31T07:57:21;25.02;;;4.68;;
41657;SDS011;27347;57.132;-2.084;2022-10-31T07:59:47;21.67;;;4.35;;
41657;SDS011;27347;57.132;-2.084;2022-10-31T08:02:12;21.75;;;4.13;;
41657;SDS011;27347;57.132;-2.084;2022-10-31T08:04:37;25.73;;;3.63;;
41657;SDS011;27347;57.132;-2.084;2022-10-31T08:07:03;19.00;;;4.05;;
41657;SDS011;27347;57.132;-2.084;2022-10-31T08:09:28;17.58;;;3.88;;
41657;SDS011;27347;57.132;-2.084;2022-10-31T08:11:54;30.30;;;5.03;;
41657;SDS011;27347;57.132;-2.084;2022-10-31T08:14:19;20.55;;;4.35;;
41657;SDS011;27347;57.132;-2.084;2022-10-31T08:16:44;19.08;;;4.22;;
41657;SDS011;27347;57.132;-2.084;2022-10-31T08:19:10;21.52;;;4.32;;
41657;SDS011;27347;57.132;-2.084;2022-10-31T08:21:35;26.55;;;4.32;;
41657;SDS011;27347;57.132;-2.084;2022-10-31T08:24:01;24.45;;;5.22;;
41657;SDS011;27347;57.132;-2.084;2022-10-31T08:26:26;21.65;;;4.00;;
41657;SDS011;27347;57.132;-2.084;2022-10-31T08:28:52;22.83;;;5.32;;
41657;SDS011;27347;57.132;-2.084;2022-10-31T08:31:19;22.02;;;3.67;;
41657;SDS011;27347;57.132;-2.084;2022-10-31T08:33:45;18.60;;;3.60;;
41657;SDS011;27347;57.132;-2.084;2022-10-31T08:36:10;18.13;;;4.40;;
41657;SDS011;27347;57.132;-2.084;2022-10-31T08:38:36;20.17;;;3.90;;
41657;SDS011;27347;57.132;-2.084;2022-10-31T08:41:01;21.38;;;4.47;;
41657;SDS011;27347;57.132;-2.084;2022-10-31T08:43:26;29.98;;;6.18;;
41657;SDS011;27347;57.132;-2.084;2022-10-31T08:45:52;37.92;;;4.75;;
41657;SDS011;27347;57.132;-2.084;2022-10-31T08:48:20;25.38;;;4.55;;
41657;SDS011;27347;57.132;-2.084;2022-10-31T08:50:46;23.13;;;4.13;;
41657;SDS011;27347;57.132;-2.084;2022-10-31T08:53:12;29.50;;;4.80;;
41657;SDS011;27347;57.132;-2.084;2022-10-31T08:55:40;28.17;;;6.22;;
41657;SDS011;27347;57.132;-2.084;2022-10-31T08:58:07;21.63;;;4.57;;
41657;SDS011;27347;57.132;-2.084;2022-10-31T09:00:35;36.92;;;5.13;;
41657;SDS011;27347;57.132;-2.084;2022-10-31T09:03:02;29.55;;;5.20;;
41657;SDS011;27347;57.132;-2.084;2022-10-31T09:05:32;29.85;;;5.63;;
41657;SDS011;27347;57.132;-2.084;2022-10-31T09:07:58;26.52;;;5.10;;
41657;SDS011;27347;57.132;-2.084;2022-10-31T09:10:24;23.15;;;4.93;;
41657;SDS011;27347;57.132;-2.084;2022-10-31T09:13:10;27.67;;;4.60;;
41657;SDS011;27347;57.132;-2.084;2022-10-31T09:15:41;35.30;;;5.35;;
41657;SDS011;27347;57.132;-2.084;2022-10-31T09:18:09;24.67;;;5.32;;
41657;SDS011;27347;57.132;-2.084;2022-10-31T09:20:35;28.55;;;4.68;;
41657;SDS011;27347;57.132;-2.084;2022-10-31T09:23:02;31.25;;;5.90;;
41657;SDS011;27347;57.132;-2.084;2022-10-31T09:25:30;27.80;;;4.70;;
41657;SDS011;27347;57.132;-2.084;2022-10-31T09:27:58;31.17;;;4.95;;
41657;SDS011;27347;57.132;-2.084;2022-10-31T09:30:24;19.48;;;5.45;;
41657;SDS011;27347;57.132;-2.084;2022-10-31T09:32:56;22.17;;;4.63;;
41657;SDS011;27347;57.132;-2.084;2022-10-31T09:35:25;23.13;;;4.43;;
41657;SDS011;27347;57.132;-2.084;2022-10-31T09:37:55;33.10;;;5.45;;
41657;SDS011;27347;57.132;-2.084;2022-10-31T09:40:21;30.58;;;6.18;;
41657;SDS011;27347;57.132;-2.084;2022-10-31T09:42:50;22.02;;;5.15;;
41657;SDS011;27347;57.132;-2.084;2022-10-31T09:50:41;20.23;;;5.15;;
41657;SDS011;27347;57.132;-2.084;2022-10-31T09:53:30;19.60;;;4.85;;
41657;SDS011;27347;57.132;-2.084;2022-10-31T09:56:13;21.00;;;3.85;;
41657;SDS011;27347;57.132;-2.084;2022-10-31T09:58:43;27.08;;;4.10;;
41657;SDS011;27347;57.132;-2.084;2022-10-31T10:09:55;21.08;;;4.03;;
41657;SDS011;27347;57.132;-2.084;2022-10-31T10:12:37;27.00;;;4.15;;
41657;SDS011;27347;57.132;-2.084;2022-10-31T10:18:01;22.50;;;4.15;;
41657;SDS011;27347;57.132;-2.084;2022-10-31T10:28:38;19.55;;;4.32;;
41657;SDS011;27347;57.132;-2.084;2022-10-31T10:31:16;26.27;;;5.03;;
41657;SDS011;27347;57.132;-2.084;2022-10-31T10:36:38;26.17;;;4.90;;
41657;SDS011;27347;57.132;-2.084;2022-10-31T10:39:20;18.73;;;4.13;;
41657;SDS011;27347;57.132;-2.084;2022-10-31T10:41:49;24.63;;;3.92;;
41657;SDS011;27347;57.132;-2.084;2022-10-31T10:44:37;20.73;;;4.28;;
41657;SDS011;27347;57.132;-2.084;2022-10-31T10:47:23;23.70;;;4.30;;
41657;SDS011;27347;57.132;-2.084;2022-10-31T10:50:41;21.80;;;4.43;;
41657;SDS011;27347;57.132;-2.084;2022-10-31T10:53:07;29.60;;;5.53;;
41657;SDS011;27347;57.132;-2.084;2022-10-31T10:58:23;25.75;;;5.10;;
41657;SDS011;27347;57.132;-2.084;2022-10-31T11:00:49;23.13;;;5.50;;
41657;SDS011;27347;57.132;-2.084;2022-10-31T11:03:16;23.90;;;4.53;;
41657;SDS011;27347;57.132;-2.084;2022-10-31T11:05:52;27.52;;;4.82;;
41657;SDS011;27347;57.132;-2.084;2022-10-31T11:08:34;24.75;;;4.95;;
41657;SDS011;27347;57.132;-2.084;2022-10-31T11:13:27;26.02;;;4.72;;
41657;SDS011;27347;57.132;-2.084;2022-10-31T11:15:56;20.65;;;4.95;;
41657;SDS011;27347;57.132;-2.084;2022-10-31T11:18:37;29.92;;;5.50;;
41657;SDS011;27347;57.132;-2.084;2022-10-31T11:21:04;27.00;;;5.45;;
41657;SDS011;27347;57.132;-2.084;2022-10-31T11:23:30;32.38;;;5.78;;
41657;SDS011;27347;57.132;-2.084;2022-10-31T11:25:57;31.13;;;4.90;;
41657;SDS011;27347;57.132;-2.084;2022-10-31T11:28:27;19.67;;;4.80;;
41657;SDS011;27347;57.132;-2.084;2022-10-31T11:31:04;18.35;;;3.92;;
41657;SDS011;27347;57.132;-2.084;2022-10-31T11:33:35;19.58;;;4.65;;
41657;SDS011;27347;57.132;-2.084;2022-10-31T11:36:04;20.75;;;4.78;;
41657;SDS011;27347;57.132;-2.084;2022-10-31T11:38:41;27.40;;;4.88;;
41657;SDS011;27347;57.132;-2.084;2022-10-31T11:41:17;26.27;;;5.05;;
41657;SDS011;27347;57.132;-2.084;2022-10-31T11:43:52;23.98;;;4.80;;
41657;SDS011;27347;57.132;-2.084;2022-10-31T11:46:21;31.27;;;5.35;;
41657;SDS011;27347;57.132;-2.084;2022-10-31T11:48:57;29.08;;;5.22;;
41657;SDS011;27347;57.132;-2.084;2022-10-31T11:51:24;25.92;;;4.63;;
41657;SDS011;27347;57.132;-2.084;2022-10-31T11:53:52;24.38;;;4.78;;
41657;SDS011;27347;57.132;-2.084;2022-10-31T11:56:19;25.13;;;5.43;;
41657;SDS011;27347;57.132;-2.084;2022-10-31T11:58:54;29.25;;;5.13;;
41657;SDS011;27347;57.132;-2.084;2022-10-31T12:01:30;25.15;;;5.75;;
41657;SDS011;27347;57.132;-2.084;2022-10-31T12:06:33;22.83;;;4.88;;
41657;SDS011;27347;57.132;-2.084;2022-10-31T12:09:00;24.35;;;4.65;;
41657;SDS011;27347;57.132;-2.084;2022-10-31T12:11:43;25.55;;;5.93;;
41657;SDS011;27347;57.132;-2.084;2022-10-31T12:14:26;20.88;;;4.60;;
41657;SDS011;27347;57.132;-2.084;2022-10-31T12:22:39;23.65;;;5.72;;
41657;SDS011;27347;57.132;-2.084;2022-10-31T12:36:08;23.02;;;4.88;;
41657;SDS011;27347;57.132;-2.084;2022-10-31T12:46:41;23.80;;;5.80;;
41657;SDS011;27347;57.132;-2.084;2022-10-31T12:59:57;25.80;;;5.40;;
41657;SDS011;27347;57.132;-2.084;2022-10-31T13:02:33;30.55;;;6.45;;
41657;SDS011;27347;57.132;-2.084;2022-10-31T13:05:05;29.67;;;6.03;;
41657;SDS011;27347;57.132;-2.084;2022-10-31T13:07:39;22.92;;;5.75;;
41657;SDS011;27347;57.132;-2.084;2022-10-31T13:10:14;22.60;;;5.90;;
41657;SDS011;27347;57.132;-2.084;2022-10-31T13:12:41;23.25;;;5.70;;
41657;SDS011;27347;57.132;-2.084;2022-10-31T13:15:21;41.45;;;7.88;;
41657;SDS011;27347;57.132;-2.084;2022-10-31T13:17:53;35.33;;;6.57;;
41657;SDS011;27347;57.132;-2.084;2022-10-31T13:22:56;24.70;;;5.15;;
41657;SDS011;27347;57.132;-2.084;2022-10-31T13:25:25;35.25;;;6.80;;
41657;SDS011;27347;57.132;-2.084;2022-10-31T13:28:01;24.42;;;5.85;;
41657;SDS011;27347;57.132;-2.084;2022-10-31T13:30:29;33.03;;;6.82;;
41657;SDS011;27347;57.132;-2.084;2022-10-31T13:33:01;30.40;;;6.07;;
41657;SDS011;27347;57.132;-2.084;2022-10-31T13:40:54;28.00;;;5.60;;
41657;SDS011;27347;57.132;-2.084;2022-10-31T13:43:31;36.65;;;7.30;;
41657;SDS011;27347;57.132;-2.084;2022-10-31T13:46:00;29.67;;;6.45;;
41657;SDS011;27347;57.132;-2.084;2022-10-31T13:48:33;24.90;;;6.15;;
41657;SDS011;27347;57.132;-2.084;2022-10-31T13:51:05;48.85;;;8.25;;
41657;SDS011;27347;57.132;-2.084;2022-10-31T13:56:48;39.58;;;7.75;;
41657;SDS011;27347;57.132;-2.084;2022-10-31T13:59:23;43.20;;;8.00;;
41657;SDS011;27347;57.132;-2.084;2022-10-31T14:02:00;39.35;;;8.63;;
41657;SDS011;27347;57.132;-2.084;2022-10-31T14:09:38;35.10;;;7.93;;
41657;SDS011;27347;57.132;-2.084;2022-10-31T14:15:23;34.25;;;7.40;;
41657;SDS011;27347;57.132;-2.084;2022-10-31T14:17:51;26.75;;;6.47;;
41657;SDS011;27347;57.132;-2.084;2022-10-31T14:20:24;48.05;;;8.63;;
41657;SDS011;27347;57.132;-2.084;2022-10-31T14:28:43;37.63;;;8.10;;
41657;SDS011;27347;57.132;-2.084;2022-10-31T14:31:27;35.97;;;7.53;;
41657;SDS011;27347;57.132;-2.084;2022-10-31T14:33:54;36.97;;;6.65;;
41657;SDS011;27347;57.132;-2.084;2022-10-31T14:36:23;28.90;;;6.93;;
41657;SDS011;27347;57.132;-2.084;2022-10-31T14:39:39;23.87;;;6.30;;
41657;SDS011;27347;57.132;-2.084;2022-10-31T14:42:21;24.03;;;6.20;;
41657;SDS011;27347;57.132;-2.084;2022-10-31T14:45:14;30.40;;;6.22;;
41657;SDS011;27347;57.132;-2.084;2022-10-31T14:48:31;38.85;;;7.30;;
41657;SDS011;27347;57.132;-2.084;2022-10-31T14:53:35;30.75;;;7.60;;
41657;SDS011;27347;57.132;-2.084;2022-10-31T14:56:08;37.17;;;7.15;;
41657;SDS011;27347;57.132;-2.084;2022-10-31T14:58:38;39.40;;;8.57;;
41657;SDS011;27347;57.132;-2.084;2022-10-31T15:01:27;28.52;;;6.65;;
41657;SDS011;27347;57.132;-2.084;2022-10-31T15:03:55;25.10;;;7.35;;
41657;SDS011;27347;57.132;-2.084;2022-10-31T15:06:44;35.38;;;8.18;;
41657;SDS011;27347;57.132;-2.084;2022-10-31T15:09:24;50.97;;;9.50;;
41657;SDS011;27347;57.132;-2.084;2022-10-31T15:11:55;40.22;;;7.93;;
41657;SDS011;27347;57.132;-2.084;2022-10-31T15:14:28;39.50;;;8.23;;
41657;SDS011;27347;57.132;-2.084;2022-10-31T15:16:58;49.47;;;9.57;;
41657;SDS011;27347;57.132;-2.084;2022-10-31T15:19:25;48.63;;;9.10;;
41657;SDS011;27347;57.132;-2.084;2022-10-31T15:21:53;33.97;;;7.60;;
41657;SDS011;27347;57.132;-2.084;2022-10-31T15:24:19;46.60;;;8.45;;
41657;SDS011;27347;57.132;-2.084;2022-10-31T15:26:47;32.33;;;7.38;;
41657;SDS011;27347;57.132;-2.084;2022-10-31T15:29:14;47.78;;;9.27;;
41657;SDS011;27347;57.132;-2.084;2022-10-31T15:31:57;41.58;;;7.93;;
41657;SDS011;27347;57.132;-2.084;2022-10-31T15:34:58;48.30;;;8.98;;
41657;SDS011;27347;57.132;-2.084;2022-10-31T15:37:19;40.20;;;8.20;;
41657;SDS011;27347;57.132;-2.084;2022-10-31T15:39:46;39.13;;;8.07;;
41657;SDS011;27347;57.132;-2.084;2022-10-31T15:44:49;31.52;;;7.70;;
41657;SDS011;27347;57.132;-2.084;2022-10-31T15:47:19;38.55;;;7.57;;
41657;SDS011;27347;57.132;-2.084;2022-10-31T15:49:48;40.35;;;8.43;;
41657;SDS011;27347;57.132;-2.084;2022-10-31T15:55:03;38.80;;;7.75;;
41657;SDS011;27347;57.132;-2.084;2022-10-31T15:57:29;43.80;;;7.60;;
41657;SDS011;27347;57.132;-2.084;2022-10-31T15:59:55;38.28;;;8.13;;
41657;SDS011;27347;57.132;-2.084;2022-10-31T16:02:21;32.65;;;7.00;;
41657;SDS011;27347;57.132;-2.084;2022-10-31T16:04:59;33.95;;;8.50;;
41657;SDS011;27347;57.132;-2.084;2022-10-31T16:07:26;33.40;;;6.97;;
41657;SDS011;27347;57.132;-2.084;2022-10-31T16:09:53;34.42;;;7.80;;
41657;SDS011;27347;57.132;-2.084;2022-10-31T16:12:33;35.72;;;7.00;;
41657;SDS011;27347;57.132;-2.084;2022-10-31T16:15:00;44.15;;;8.73;;
41657;SDS011;27347;57.132;-2.084;2022-10-31T16:17:26;37.10;;;8.10;;
41657;SDS011;27347;57.132;-2.084;2022-10-31T16:20:03;33.28;;;7.75;;
41657;SDS011;27347;57.132;-2.084;2022-10-31T16:22:31;36.58;;;7.20;;
41657;SDS011;27347;57.132;-2.084;2022-10-31T16:25:00;36.45;;;7.35;;
41657;SDS011;27347;57.132;-2.084;2022-10-31T16:27:28;33.90;;;6.47;;
41657;SDS011;27347;57.132;-2.084;2022-10-31T16:29:55;28.90;;;6.38;;
41657;SDS011;27347;57.132;-2.084;2022-10-31T16:32:34;39.78;;;8.50;;
41657;SDS011;27347;57.132;-2.084;2022-10-31T16:35:27;41.67;;;8.77;;
41657;SDS011;27347;57.132;-2.084;2022-10-31T16:38:03;35.40;;;7.95;;
41657;SDS011;27347;57.132;-2.084;2022-10-31T16:40:29;30.27;;;6.35;;
41657;SDS011;27347;57.132;-2.084;2022-10-31T16:42:56;33.38;;;8.13;;
41657;SDS011;27347;57.132;-2.084;2022-10-31T16:45:23;35.75;;;7.03;;
41657;SDS011;27347;57.132;-2.084;2022-10-31T16:47:50;32.35;;;7.35;;
41657;SDS011;27347;57.132;-2.084;2022-10-31T16:50:17;32.35;;;6.63;;
41657;SDS011;27347;57.132;-2.084;2022-10-31T16:52:47;47.17;;;7.97;;